createdAt,value
2019-05-03T00:00:42.595Z,4.30
2019-05-03T00:03:13.100Z,4.20
2019-05-03T00:05:43.689Z,4.30
2019-05-03T00:08:12.751Z,4.40
2019-05-03T00:10:42.535Z,4.30
2019-05-03T00:13:12.499Z,4.40
2019-05-03T00:15:45.958Z,4.40
2019-05-03T00:18:17.358Z,4.30
2019-05-03T00:20:46.323Z,4.30
2019-05-03T00:23:15.212Z,4.30
2019-05-03T00:25:46.350Z,4.40
2019-05-03T00:28:15.221Z,4.40
2019-05-03T00:30:44.149Z,4.50
2019-05-03T00:33:13.007Z,4.50
2019-05-03T00:35:52.812Z,4.50
2019-05-03T00:38:22.778Z,4.50
2019-05-03T00:40:52.357Z,4.60
2019-05-03T00:43:22.245Z,4.60
2019-05-03T00:45:51.743Z,4.60
2019-05-03T00:48:21.996Z,4.60
2019-05-03T00:50:51.777Z,4.70
2019-05-03T00:53:22.441Z,4.60
2019-05-03T00:55:52.447Z,4.70
2019-05-03T00:58:22.387Z,4.70
2019-05-03T01:00:52.448Z,4.70
2019-05-03T01:03:22.067Z,4.70
2019-05-03T01:05:52.737Z,4.70
2019-05-03T01:08:22.015Z,4.70
2019-05-03T01:10:51.681Z,4.70
2019-05-03T01:13:21.891Z,4.70
2019-05-03T01:15:58.718Z,4.70
2019-05-03T01:18:27.626Z,4.60
2019-05-03T01:20:56.494Z,4.60
2019-05-03T01:23:25.394Z,4.60
2019-05-03T01:25:55.683Z,4.60
2019-05-03T01:28:25.066Z,4.60
2019-05-03T01:30:53.969Z,4.60
2019-05-03T01:33:22.857Z,4.60
2019-05-03T01:35:51.949Z,4.60
2019-05-03T01:38:22.680Z,4.70
2019-05-03T01:40:52.197Z,4.70
2019-05-03T01:43:22.176Z,4.70
2019-05-03T01:45:51.877Z,4.70
2019-05-03T01:48:34.798Z,4.70
2019-05-03T01:51:07.918Z,4.70
2019-05-03T01:53:41.684Z,4.70
2019-05-03T01:56:11.814Z,4.60
2019-05-03T01:58:41.740Z,4.60
2019-05-03T02:01:12.700Z,4.60
2019-05-03T02:03:43.377Z,4.70
2019-05-03T02:06:12.279Z,4.70
2019-05-03T02:08:41.812Z,4.60
2019-05-03T02:11:11.633Z,4.60
2019-05-03T02:13:42.654Z,4.60
2019-05-03T02:16:13.483Z,4.60
2019-05-03T02:18:44.693Z,4.50
2019-05-03T02:21:13.552Z,4.50
2019-05-03T02:23:42.682Z,4.50
2019-05-03T02:26:12.241Z,4.40
2019-05-03T02:28:42.190Z,4.40
2019-05-03T02:31:13.743Z,4.40
2019-05-03T02:33:43.412Z,4.40
2019-05-03T02:36:13.650Z,4.40
2019-05-03T02:38:43.179Z,4.40
2019-05-03T02:41:13.453Z,4.40
2019-05-03T02:43:55.795Z,4.40
2019-05-03T02:46:25.443Z,4.40
2019-05-03T02:49:08.017Z,4.50
2019-05-03T02:51:36.921Z,4.50
2019-05-03T02:54:06.320Z,4.50
2019-05-03T02:56:35.752Z,4.50
2019-05-03T02:59:06.153Z,4.50
2019-05-03T03:01:36.001Z,4.50
2019-05-03T03:04:05.648Z,4.50
2019-05-03T03:06:36.698Z,4.50
2019-05-03T03:09:06.810Z,4.50
2019-05-03T03:11:38.818Z,4.50
2019-05-03T03:14:10.007Z,4.50
2019-05-03T03:16:39.421Z,4.40
2019-05-03T03:19:15.742Z,4.40
2019-05-03T03:22:00.925Z,4.50
2019-05-03T03:24:32.002Z,4.50
2019-05-03T03:27:05.370Z,4.40
2019-05-03T03:29:36.137Z,4.50
2019-05-03T03:32:18.823Z,4.50
2019-05-03T03:35:11.818Z,4.50
2019-05-03T03:37:40.461Z,4.50
2019-05-03T03:40:09.908Z,4.50
2019-05-03T03:42:40.909Z,4.50
2019-05-03T03:45:10.999Z,4.40
2019-05-03T03:47:39.867Z,4.40
2019-05-03T03:50:10.386Z,4.40
2019-05-03T03:52:42.075Z,4.40
2019-05-03T03:55:11.488Z,4.40
2019-05-03T03:57:46.826Z,4.40
2019-05-03T04:00:36.147Z,4.40
2019-05-03T04:03:05.938Z,4.50
2019-05-03T04:05:35.815Z,4.50
2019-05-03T04:08:05.792Z,4.60
2019-05-03T04:10:35.925Z,4.60
2019-05-03T04:13:06.496Z,4.60
2019-05-03T04:15:52.791Z,4.60
2019-05-03T04:18:29.795Z,4.60
2019-05-03T04:21:17.949Z,4.60
2019-05-03T04:23:46.783Z,4.60
2019-05-03T04:26:16.440Z,4.60
2019-05-03T04:28:45.610Z,4.60
2019-05-03T04:31:15.292Z,4.50
2019-05-03T04:33:45.350Z,4.50
2019-05-03T04:36:15.967Z,4.50
2019-05-03T04:38:45.360Z,4.50
2019-05-03T04:41:15.877Z,4.50
2019-05-03T04:43:46.020Z,4.50
2019-05-03T04:46:19.405Z,4.50
2019-05-03T04:48:48.260Z,4.50
2019-05-03T04:51:18.220Z,4.50
2019-05-03T04:53:48.707Z,4.40
2019-05-03T04:56:17.602Z,4.40
2019-05-03T04:58:46.499Z,4.40
2019-05-03T05:01:17.068Z,4.30
2019-05-03T05:03:45.933Z,4.30
2019-05-03T05:06:15.478Z,4.30
2019-05-03T05:08:46.032Z,4.30
2019-05-03T05:11:16.630Z,4.30
2019-05-03T05:13:45.944Z,4.30
2019-05-03T05:16:16.317Z,4.40
2019-05-03T05:18:46.745Z,4.40
2019-05-03T05:21:19.662Z,4.40
2019-05-03T05:23:59.112Z,4.50
2019-05-03T05:26:32.743Z,4.50
2019-05-03T05:29:08.980Z,4.50
2019-05-03T05:31:37.812Z,4.50
2019-05-03T05:34:08.927Z,4.60
2019-05-03T05:36:38.065Z,4.60
2019-05-03T05:39:08.579Z,4.60
2019-05-03T05:41:38.880Z,4.70
2019-05-03T05:44:07.749Z,4.70
2019-05-03T05:46:38.271Z,4.70
2019-05-03T05:49:08.714Z,4.70
2019-05-03T05:51:37.566Z,4.70
2019-05-03T05:54:06.479Z,4.70
2019-05-03T05:56:46.031Z,4.80
2019-05-03T05:59:28.511Z,4.80
2019-05-03T06:01:58.918Z,4.90
2019-05-03T06:04:29.786Z,4.90
2019-05-03T06:07:16.557Z,5.00
2019-05-03T06:09:59.162Z,5.00
2019-05-03T06:12:29.610Z,5.00
2019-05-03T06:15:00.051Z,5.00
2019-05-03T06:17:34.842Z,5.00
2019-05-03T06:20:11.664Z,5.10
2019-05-03T06:22:48.019Z,5.10
2019-05-03T06:25:26.561Z,5.10
2019-05-03T06:28:20.127Z,5.10
2019-05-03T06:31:04.784Z,5.30
2019-05-03T06:33:34.731Z,5.30
2019-05-03T06:36:04.921Z,5.40
2019-05-03T06:38:38.167Z,5.50
2019-05-03T06:41:04.788Z,5.60
2019-05-03T06:43:34.834Z,5.70
2019-05-03T06:46:05.324Z,5.80
2019-05-03T06:48:35.901Z,5.90
2019-05-03T06:51:09.276Z,5.80
2019-05-03T06:53:35.488Z,5.60
2019-05-03T06:56:05.305Z,5.60
2019-05-03T06:58:36.373Z,5.60
2019-05-03T07:01:06.293Z,5.60
2019-05-03T07:03:48.773Z,5.60
2019-05-03T07:06:32.627Z,5.40
2019-05-03T07:08:54.974Z,5.20
2019-05-03T07:11:24.753Z,5.20
2019-05-03T07:13:55.037Z,5.10
2019-05-03T07:16:25.376Z,5.10
2019-05-03T07:18:58.521Z,5.10
2019-05-03T07:21:27.004Z,5.10
2019-05-03T07:23:55.979Z,5.10
2019-05-03T07:26:25.418Z,5.00
2019-05-03T07:28:54.643Z,5.00
2019-05-03T07:31:25.636Z,5.00
2019-05-03T07:33:55.030Z,4.90
2019-05-03T07:36:27.602Z,5.00
2019-05-03T07:38:55.528Z,5.10
2019-05-03T07:41:27.172Z,5.10
2019-05-03T07:43:55.156Z,5.00
2019-05-03T07:46:24.717Z,4.90
2019-05-03T07:48:56.786Z,4.80
2019-05-03T07:51:28.587Z,4.60
2019-05-03T07:53:57.852Z,4.30
2019-05-03T07:56:28.434Z,4.10
2019-05-03T07:59:02.807Z,4.00
2019-05-03T08:01:29.821Z,4.10
2019-05-03T08:03:59.043Z,4.40
2019-05-03T08:06:28.107Z,4.40
2019-05-03T08:08:56.977Z,4.50
2019-05-03T08:11:27.220Z,4.80
2019-05-03T08:13:56.164Z,5.10
2019-05-03T08:16:25.335Z,5.10
2019-05-03T08:19:05.012Z,5.10
2019-05-03T08:21:38.671Z,5.20
2019-05-03T08:24:25.444Z,5.30
2019-05-03T08:27:14.810Z,5.30
2019-05-03T08:29:45.288Z,5.30
2019-05-03T08:32:35.515Z,5.30
2019-05-03T08:35:16.727Z,5.30
2019-05-03T08:40:54.757Z,5.10
2019-05-03T08:43:22.400Z,5.10
2019-05-03T08:45:55.241Z,5.10
2019-05-03T08:48:31.020Z,5.10
2019-05-03T08:52:12.309Z,5.30
2019-05-03T08:53:39.861Z,5.70
2019-05-03T08:56:15.503Z,6.40
2019-05-03T08:58:45.111Z,7.10
2019-05-03T09:01:16.231Z,7.70
2019-05-03T09:03:45.731Z,7.40
2019-05-03T09:06:16.505Z,7.40
2019-05-03T09:08:57.908Z,6.90
2019-05-03T09:11:34.040Z,7.10
2019-05-03T09:14:06.414Z,7.70
2019-05-03T09:16:36.979Z,8.40
2019-05-03T09:19:06.033Z,8.60
2019-05-03T09:21:34.910Z,8.90
2019-05-03T09:24:04.671Z,9.30
2019-05-03T09:26:34.846Z,9.30
2019-05-03T09:29:05.562Z,9.50
2019-05-03T09:31:35.273Z,9.10
2019-05-03T09:34:08.082Z,9.00
2019-05-03T09:36:35.234Z,8.80
2019-05-03T09:39:07.166Z,8.60
2019-05-03T09:41:35.752Z,8.50
2019-05-03T09:44:04.786Z,8.40
2019-05-03T09:46:35.443Z,8.80
2019-05-03T09:49:12.759Z,8.70
2019-05-03T09:51:37.119Z,9.40
2019-05-03T09:54:08.046Z,9.40
2019-05-03T09:56:58.170Z,9.00
2019-05-03T09:59:26.737Z,8.80
2019-05-03T10:01:55.596Z,9.00
2019-05-03T10:04:25.570Z,9.20
2019-05-03T10:06:55.485Z,9.40
2019-05-03T10:09:26.116Z,9.90
2019-05-03T10:11:55.304Z,10.10
2019-05-03T10:14:26.962Z,9.40
2019-05-03T10:17:05.194Z,8.60
2019-05-03T10:19:39.860Z,7.90
2019-05-03T10:22:05.862Z,7.50
2019-05-03T10:24:35.144Z,8.10
2019-05-03T10:27:05.684Z,9.00
2019-05-03T10:29:35.713Z,9.70
2019-05-03T10:32:10.592Z,10.20
2019-05-03T10:34:41.155Z,10.30
2019-05-03T10:37:30.373Z,10.40
2019-05-03T10:40:00.888Z,10.20
2019-05-03T10:42:29.871Z,10.00
2019-05-03T10:44:58.748Z,10.40
2019-05-03T10:47:27.763Z,10.50
2019-05-03T10:49:56.914Z,10.70
2019-05-03T10:52:27.356Z,10.50
2019-05-03T10:54:56.289Z,10.70
2019-05-03T10:57:26.976Z,10.40
2019-05-03T10:59:57.443Z,9.70
2019-05-03T11:02:35.237Z,9.00
2019-05-03T11:05:08.215Z,9.30
2019-05-03T11:07:37.070Z,9.70
2019-05-03T11:10:07.270Z,9.70
2019-05-03T11:12:36.124Z,9.50
2019-05-03T11:15:07.079Z,9.80
2019-05-03T11:17:36.010Z,10.10
2019-05-03T11:20:05.984Z,10.20
2019-05-03T11:22:35.015Z,10.40
2019-05-03T11:25:05.166Z,10.80
2019-05-03T11:27:35.817Z,11.10
2019-05-03T11:30:09.284Z,11.10
2019-05-03T11:32:50.822Z,11.20
2019-05-03T11:35:21.330Z,11.10
2019-05-03T11:37:57.868Z,10.80
2019-05-03T11:40:28.755Z,10.60
2019-05-03T11:42:59.187Z,10.30
2019-05-03T11:45:28.069Z,10.50
2019-05-03T11:47:57.078Z,10.80
2019-05-03T11:50:26.031Z,10.60
2019-05-03T11:52:57.624Z,10.20
2019-05-03T11:55:26.965Z,9.80
2019-05-03T11:57:56.631Z,10.20
2019-05-03T12:00:27.274Z,10.80
2019-05-03T12:03:00.909Z,10.40
2019-05-03T12:05:31.031Z,9.80
2019-05-03T12:07:59.910Z,9.80
2019-05-03T12:10:44.798Z,10.10
2019-05-03T12:13:00.931Z,10.70
2019-05-03T12:15:29.811Z,11.00
2019-05-03T12:18:05.479Z,11.20
2019-05-03T12:20:37.178Z,11.70
2019-05-03T12:23:12.038Z,12.10
2019-05-03T12:25:41.868Z,12.10
2019-05-03T12:28:11.294Z,11.80
2019-05-03T12:30:40.217Z,11.70
2019-05-03T12:33:09.189Z,11.90
2019-05-03T12:35:38.089Z,12.20
2019-05-03T12:38:07.014Z,12.30
2019-05-03T12:40:35.868Z,12.30
2019-05-03T12:43:06.027Z,12.30
2019-05-03T12:45:35.474Z,11.50
2019-05-03T12:48:05.238Z,11.30
2019-05-03T12:50:34.843Z,11.80
2019-05-03T12:53:04.780Z,11.70
2019-05-03T12:55:35.744Z,11.40
2019-05-03T12:58:06.363Z,11.50
2019-05-03T13:00:55.793Z,11.90
2019-05-03T13:03:28.979Z,12.00
2019-05-03T13:05:57.843Z,10.90
2019-05-03T13:08:38.026Z,9.00
2019-05-03T13:11:07.697Z,8.00
2019-05-03T13:13:38.336Z,7.70
2019-05-03T13:16:07.873Z,8.10
2019-05-03T13:18:36.727Z,8.80
2019-05-03T13:21:06.311Z,9.40
2019-05-03T13:23:35.796Z,10.00
2019-05-03T13:26:05.776Z,10.50
2019-05-03T13:28:35.291Z,10.60
2019-05-03T13:31:05.766Z,10.80
2019-05-03T13:33:35.151Z,10.80
2019-05-03T13:36:04.873Z,11.00
2019-05-03T13:38:34.946Z,10.80
2019-05-03T13:41:06.559Z,10.70
2019-05-03T13:43:35.038Z,10.80
2019-05-03T13:46:05.158Z,10.90
2019-05-03T13:48:42.677Z,10.50
2019-05-03T13:51:05.442Z,10.00
2019-05-03T13:53:34.966Z,10.10
2019-05-03T13:56:04.798Z,10.00
2019-05-03T13:58:35.722Z,9.60
2019-05-03T14:01:05.464Z,9.00
2019-05-03T14:03:35.403Z,8.40
2019-05-03T14:06:08.719Z,7.90
2019-05-03T14:08:35.263Z,7.50
2019-05-03T14:11:04.985Z,7.30
2019-05-03T14:13:35.399Z,7.60
2019-05-03T14:16:05.740Z,8.20
2019-05-03T14:18:35.521Z,9.00
2019-05-03T14:21:12.137Z,10.00
2019-05-03T14:23:58.868Z,10.20
2019-05-03T14:26:27.739Z,9.40
2019-05-03T14:28:56.589Z,8.20
2019-05-03T14:31:25.493Z,7.90
2019-05-03T14:33:55.787Z,8.10
2019-05-03T14:36:25.190Z,8.70
2019-05-03T14:38:54.862Z,9.20
2019-05-03T14:41:25.467Z,9.70
2019-05-03T14:43:55.648Z,10.10
2019-05-03T14:46:32.827Z,10.50
2019-05-03T14:48:55.290Z,10.70
2019-05-03T14:51:26.311Z,11.00
2019-05-03T14:53:56.976Z,11.00
2019-05-03T14:56:27.653Z,11.30
2019-05-03T14:59:07.110Z,11.50
2019-05-03T15:01:37.875Z,11.70
2019-05-03T15:04:06.750Z,11.80
2019-05-03T15:06:37.115Z,11.60
2019-05-03T15:09:07.599Z,11.40
2019-05-03T15:11:36.459Z,11.20
2019-05-03T15:14:05.703Z,11.10
2019-05-03T15:16:34.661Z,11.00
2019-05-03T15:19:05.316Z,10.90
2019-05-03T15:21:34.655Z,10.90
2019-05-03T15:24:05.555Z,10.80
2019-05-03T15:26:35.604Z,10.90
2019-05-03T15:29:05.932Z,10.80
2019-05-03T15:31:35.356Z,10.80
2019-05-03T15:34:04.710Z,10.70
2019-05-03T15:36:33.791Z,10.20
2019-05-03T15:39:04.589Z,10.30
2019-05-03T15:41:35.881Z,10.30
2019-05-03T15:44:10.507Z,10.30
2019-05-03T15:46:40.989Z,10.40
2019-05-03T15:49:11.456Z,10.40
2019-05-03T15:51:40.362Z,10.40
2019-05-03T15:54:09.282Z,10.50
2019-05-03T15:56:38.157Z,10.40
2019-05-03T15:59:07.420Z,10.30
2019-05-03T16:01:36.501Z,10.20
2019-05-03T16:04:05.529Z,10.00
2019-05-03T16:06:34.442Z,9.80
2019-05-03T16:09:04.579Z,9.70
2019-05-03T16:11:34.379Z,9.70
2019-05-03T16:14:04.538Z,9.60
2019-05-03T16:16:35.249Z,9.60
2019-05-03T16:19:05.458Z,9.70
2019-05-03T16:21:36.620Z,9.60
2019-05-03T16:24:05.071Z,9.30
2019-05-03T16:26:35.507Z,9.30
2019-05-03T16:29:06.172Z,9.10
2019-05-03T16:31:37.768Z,9.10
2019-05-03T16:34:06.710Z,8.70
2019-05-03T16:36:36.892Z,8.20
2019-05-03T16:39:06.952Z,8.00
2019-05-03T16:41:35.807Z,8.10
2019-05-03T16:44:05.591Z,8.20
2019-05-03T16:46:34.473Z,8.30
2019-05-03T16:49:04.507Z,8.60
2019-05-03T16:51:34.933Z,8.80
2019-05-03T16:54:03.913Z,8.80
2019-05-03T16:56:35.118Z,8.20
2019-05-03T16:59:05.637Z,7.50
2019-05-03T17:01:35.180Z,7.10
2019-05-03T17:04:22.955Z,6.60
2019-05-03T17:07:09.929Z,6.40
2019-05-03T17:09:46.272Z,6.30
2019-05-03T17:12:16.749Z,6.10
2019-05-03T17:14:45.639Z,6.10
2019-05-03T17:17:14.985Z,6.10
2019-05-03T17:19:44.703Z,6.20
2019-05-03T17:22:17.465Z,6.20
2019-05-03T17:24:51.526Z,6.20
2019-05-03T17:27:19.488Z,6.30
2019-05-03T17:29:48.390Z,6.20
2019-05-03T17:32:19.156Z,6.20
2019-05-03T17:34:49.240Z,6.10
2019-05-03T17:37:18.138Z,6.00
2019-05-03T17:39:48.642Z,5.90
2019-05-03T17:42:19.085Z,5.90
2019-05-03T17:44:48.395Z,5.80
2019-05-03T17:47:17.254Z,5.70
2019-05-03T17:49:46.137Z,5.70
2019-05-03T17:52:16.616Z,5.70
2019-05-03T17:54:47.097Z,5.70
2019-05-03T17:57:35.828Z,5.70
2019-05-03T18:00:26.404Z,5.70
2019-05-03T18:02:55.946Z,5.80
2019-05-03T18:05:34.481Z,5.70
2019-05-03T18:08:09.494Z,5.70
2019-05-03T18:10:39.954Z,5.60
2019-05-03T18:13:08.837Z,5.50
2019-05-03T18:15:37.782Z,5.30
2019-05-03T18:18:06.744Z,4.80
2019-05-03T18:20:35.740Z,4.20
2019-05-03T18:23:05.148Z,3.90
2019-05-03T18:25:35.447Z,3.90
2019-05-03T18:28:04.560Z,3.80
2019-05-03T18:30:34.890Z,3.80
2019-05-03T18:33:04.876Z,3.70
2019-05-03T18:35:33.952Z,3.70
2019-05-03T18:38:02.930Z,3.60
2019-05-03T18:49:15.331Z,3.70
2019-05-03T18:52:01.654Z,3.70
2019-05-03T18:57:26.825Z,3.70
2019-05-03T19:00:00.429Z,3.60
2019-05-03T19:02:33.483Z,3.60
2019-05-03T19:05:15.255Z,3.70
2019-05-03T19:10:52.718Z,3.60
2019-05-03T19:13:41.811Z,3.60
2019-05-03T19:16:26.843Z,3.60
2019-05-03T19:18:58.972Z,3.60
2019-05-03T19:21:32.673Z,3.50
2019-05-03T19:24:05.365Z,3.50
2019-05-03T19:26:44.921Z,3.50
2019-05-03T19:29:19.003Z,3.40
2019-05-03T19:31:51.293Z,3.40
2019-05-03T19:34:26.961Z,3.40
2019-05-03T19:36:59.200Z,3.40
2019-05-03T19:39:31.722Z,3.40
2019-05-03T19:42:04.847Z,3.40
2019-05-03T19:44:35.225Z,3.40
2019-05-03T19:47:06.569Z,3.30
2019-05-03T19:49:35.426Z,3.30
2019-05-03T19:52:05.193Z,3.30
2019-05-03T19:54:36.504Z,3.30
2019-05-03T19:57:05.516Z,3.30
2019-05-03T19:59:51.268Z,3.30
2019-05-03T20:02:40.619Z,3.30
2019-05-03T20:05:29.254Z,3.20
2019-05-03T20:14:06.522Z,2.80
2019-05-03T20:16:56.378Z,2.70
2019-05-03T20:22:36.516Z,2.60
2019-05-03T20:40:32.346Z,2.40
2019-05-03T20:49:21.424Z,2.40
2019-05-03T20:57:40.467Z,2.20
2019-05-03T21:00:11.788Z,2.00
2019-05-03T21:09:06.996Z,1.90
2019-05-03T21:17:34.555Z,2.00
2019-05-03T21:26:25.304Z,2.00
2019-05-03T21:31:47.915Z,2.00
2019-05-03T21:34:25.187Z,2.00
2019-05-03T21:37:12.672Z,2.20
2019-05-03T21:40:06.529Z,2.00
2019-05-03T21:42:39.941Z,1.90
2019-05-03T21:45:33.026Z,1.90
2019-05-03T21:48:10.651Z,1.80
2019-05-03T21:50:39.725Z,1.80
2019-05-03T21:53:10.249Z,1.90
2019-05-03T21:55:39.233Z,1.90
2019-05-03T21:58:08.356Z,1.90
2019-05-03T22:00:55.063Z,1.80
2019-05-03T22:03:25.221Z,1.70
2019-05-03T22:11:52.196Z,1.70
2019-05-03T22:14:26.843Z,1.50
2019-05-03T22:17:16.746Z,1.60
2019-05-03T22:19:50.058Z,1.60
2019-05-03T22:25:20.264Z,1.50
2019-05-03T22:27:49.246Z,1.50
2019-05-03T22:30:19.080Z,1.50
2019-05-03T22:32:48.479Z,1.40
2019-05-03T22:35:17.709Z,1.30
2019-05-03T22:37:46.704Z,1.30
2019-05-03T22:40:15.597Z,1.20
2019-05-03T22:42:44.895Z,1.20
2019-05-03T22:45:14.254Z,1.10
2019-05-03T22:47:44.562Z,1.00
2019-05-03T22:50:20.145Z,1.10
2019-05-03T22:52:52.096Z,1.00
2019-05-03T22:55:21.052Z,1.00
2019-05-03T22:57:49.921Z,1.10
2019-05-03T23:00:19.183Z,1.10
2019-05-03T23:02:48.212Z,0.90
2019-05-03T23:05:17.112Z,0.90
2019-05-03T23:07:46.938Z,1.00
2019-05-03T23:10:17.478Z,1.00
2019-05-03T23:12:46.609Z,1.00
2019-05-03T23:15:16.978Z,1.00
2019-05-03T23:17:45.892Z,1.10
2019-05-03T23:20:25.355Z,1.10
2019-05-03T23:22:54.750Z,1.20
2019-05-03T23:25:25.011Z,1.20
2019-05-03T23:27:55.719Z,1.40
2019-05-03T23:30:24.923Z,1.70
2019-05-03T23:32:54.746Z,1.90
2019-05-03T23:35:24.687Z,2.00
2019-05-03T23:37:54.358Z,2.20
2019-05-03T23:40:25.274Z,2.20
2019-05-03T23:42:55.557Z,2.30
2019-05-03T23:45:25.550Z,2.50
2019-05-03T23:47:54.713Z,2.60
2019-05-03T23:50:24.918Z,2.60
2019-05-03T23:52:56.993Z,2.70
2019-05-03T23:55:27.565Z,2.70
2019-05-03T23:57:56.462Z,2.70
